Time;durP1;ratioP1;P1;durP2;ratioP2;P2;SDS_P1;SDS_P2;PMS_P1;PMS_P2;Temp;Humidity;BMP_temperature;BMP_pressure;BME280_temperature;BME280_humidity;BME280_pressure;Samples;Min_cycle;Max_cycle;Signal;HPM_P1;HPM_P2
2022/07/08 00:01:22;;;;;;;1.27;1.20;;;19.80;99.90;;;;;;5107079;28;20515;-71
2022/07/08 00:03:48;;;;;;;2.08;1.00;;;19.80;99.90;;;;;;5109377;28;20028;-73
2022/07/08 00:06:13;;;;;;;1.00;1.00;;;19.80;99.90;;;;;;5115681;28;20112;-71
2022/07/08 00:08:39;;;;;;;1.08;0.98;;;19.80;99.90;;;;;;5114923;28;20058;-72
2022/07/08 00:11:05;;;;;;;1.27;1.23;;;19.80;99.90;;;;;;5098215;28;20028;-74
2022/07/08 00:13:31;;;;;;;2.65;1.00;;;19.80;99.90;;;;;;5092552;28;20148;-72
2022/07/08 00:15:56;;;;;;;0.90;0.90;;;19.80;99.90;;;;;;5094046;28;20065;-71
2022/07/08 00:18:22;;;;;;;1.38;1.00;;;19.90;99.90;;;;;;5095781;28;20119;-71
2022/07/08 00:20:48;;;;;;;0.90;0.90;;;19.90;99.90;;;;;;5102615;28;20055;-73
2022/07/08 00:23:14;;;;;;;1.50;1.40;;;20.00;99.90;;;;;;5092976;28;20476;-72
2022/07/08 00:25:40;;;;;;;1.33;1.00;;;20.00;99.90;;;;;;5094806;28;20023;-71
2022/07/08 00:28:05;;;;;;;1.00;1.00;;;20.10;99.90;;;;;;5090033;28;20027;-70
2022/07/08 00:30:35;;;;;;;0.90;0.90;;;20.10;99.90;;;;;;5091028;28;20023;-73
2022/07/08 00:33:01;;;;;;;0.88;0.77;;;20.20;99.90;;;;;;5093981;28;20051;-73
2022/07/08 00:35:27;;;;;;;2.70;1.23;;;20.20;99.90;;;;;;5086941;27;20058;-74
2022/07/08 00:37:53;;;;;;;0.93;0.90;;;20.30;99.90;;;;;;5093421;28;20066;-72
2022/07/08 00:40:20;;;;;;;0.90;0.90;;;20.30;99.90;;;;;;5092305;28;20454;-73
2022/07/08 00:42:48;;;;;;;1.48;0.95;;;20.20;99.90;;;;;;5102938;28;20052;-74
2022/07/08 00:45:16;;;;;;;1.35;1.25;;;20.10;99.90;;;;;;5091700;28;20020;-74
2022/07/08 00:47:42;;;;;;;1.15;1.15;;;20.10;99.90;;;;;;5095404;28;20044;-74
2022/07/08 00:50:09;;;;;;;1.92;1.17;;;20.00;99.90;;;;;;5090440;28;20089;-73
2022/07/08 00:52:36;;;;;;;3.65;1.55;;;20.00;99.90;;;;;;5099018;28;20139;-71
2022/07/08 00:55:02;;;;;;;1.75;1.13;;;20.00;99.90;;;;;;5106528;27;20028;-74
2022/07/08 00:57:28;;;;;;;3.08;1.38;;;20.00;99.90;;;;;;5090941;28;20567;-72
2022/07/08 00:59:55;;;;;;;1.33;1.00;;;20.10;99.90;;;;;;5091097;28;20110;-73
2022/07/08 01:02:21;;;;;;;1.00;1.00;;;20.10;99.90;;;;;;5091100;28;20386;-72
2022/07/08 01:04:47;;;;;;;1.42;1.33;;;20.10;99.90;;;;;;5091376;28;20047;-71
2022/07/08 01:07:13;;;;;;;1.20;1.08;;;20.10;99.90;;;;;;5093114;28;20039;-73
2022/07/08 01:09:39;;;;;;;1.73;1.10;;;20.00;99.90;;;;;;5090473;28;20032;-73
2022/07/08 01:12:05;;;;;;;3.33;1.63;;;19.80;99.90;;;;;;5092345;28;20080;-73
2022/07/08 01:14:31;;;;;;;1.50;1.40;;;19.70;99.90;;;;;;5100307;28;20101;-72
2022/07/08 01:16:57;;;;;;;1.38;1.27;;;19.80;99.90;;;;;;5105143;28;20028;-72
2022/07/08 01:19:23;;;;;;;1.40;1.30;;;19.70;99.90;;;;;;5099110;28;20023;-74
2022/07/08 01:21:50;;;;;;;3.30;1.40;;;19.70;99.90;;;;;;5115600;28;20016;-73
2022/07/08 01:24:16;;;;;;;2.35;1.42;;;19.70;99.90;;;;;;5108845;28;20053;-73
2022/07/08 01:26:42;;;;;;;2.13;1.85;;;19.70;99.90;;;;;;5108377;28;20377;-72
2022/07/08 01:29:08;;;;;;;1.50;1.40;;;19.70;99.90;;;;;;5097663;28;20035;-72
2022/07/08 01:31:34;;;;;;;3.35;1.70;;;19.70;99.90;;;;;;5091945;28;20119;-72
2022/07/08 01:34:00;;;;;;;1.60;1.50;;;19.70;99.90;;;;;;5090317;28;20024;-71
2022/07/08 01:36:25;;;;;;;2.40;1.83;;;19.70;99.90;;;;;;5102804;28;20501;-72
2022/07/08 01:38:51;;;;;;;0.90;0.90;;;19.70;99.90;;;;;;5092147;28;20065;-70
2022/07/08 01:41:17;;;;;;;1.90;1.40;;;19.80;99.90;;;;;;5091527;28;20106;-72
2022/07/08 01:43:43;;;;;;;1.50;1.40;;;19.80;99.90;;;;;;5090706;28;20244;-71
2022/07/08 01:46:08;;;;;;;2.30;1.95;;;19.80;99.90;;;;;;5088343;28;20027;-70
2022/07/08 01:48:34;;;;;;;2.83;1.30;;;19.80;99.90;;;;;;5092032;28;22386;-71
2022/07/08 01:51:00;;;;;;;2.95;1.23;;;19.80;99.90;;;;;;5091895;28;20069;-72
2022/07/08 01:53:26;;;;;;;2.08;1.60;;;19.80;99.90;;;;;;5090677;28;20626;-74
2022/07/08 01:55:51;;;;;;;5.47;1.50;;;19.60;99.90;;;;;;5108887;27;20083;-73
2022/07/08 01:58:17;;;;;;;1.70;1.60;;;19.70;99.90;;;;;;5113626;28;20111;-71
2022/07/08 02:00:43;;;;;;;1.55;1.25;;;19.70;99.90;;;;;;5104155;28;20027;-71
2022/07/08 02:03:20;;;;;;;2.17;1.42;;;19.80;99.90;;;;;;5113822;28;20476;-72
2022/07/08 02:06:05;;;;;;;4.20;1.30;;;19.90;99.90;;;;;;5108984;28;20028;-72
2022/07/08 02:08:36;;;;;;;3.63;1.67;;;20.00;99.90;;;;;;5115109;28;20020;-73
2022/07/08 02:13:47;;;;;;;1.92;1.20;;;20.30;99.90;;;;;;5114712;28;20111;-72
2022/07/08 02:16:12;;;;;;;2.35;1.60;;;20.40;99.90;;;;;;5115619;28;20095;-74
2022/07/08 02:18:59;;;;;;;1.10;1.08;;;20.20;99.90;;;;;;5118186;28;20030;-71
2022/07/08 02:21:30;;;;;;;1.53;1.23;;;20.10;99.90;;;;;;5121725;28;20104;-72
2022/07/08 02:23:56;;;;;;;1.58;1.48;;;20.10;99.90;;;;;;5124943;27;20024;-73
2022/07/08 02:26:21;;;;;;;1.40;1.30;;;20.10;99.90;;;;;;5142948;27;20117;-71
2022/07/08 02:28:47;;;;;;;2.50;1.75;;;20.10;99.90;;;;;;5147560;27;20090;-72
2022/07/08 02:31:13;;;;;;;1.23;1.23;;;20.00;99.90;;;;;;5147914;27;20027;-72
2022/07/08 02:33:42;;;;;;;2.10;1.98;;;19.90;99.90;;;;;;5136625;27;20055;-71
2022/07/08 02:36:13;;;;;;;2.53;1.38;;;19.80;99.90;;;;;;5107771;27;20027;-71
2022/07/08 02:38:46;;;;;;;2.25;1.73;;;19.70;99.90;;;;;;5100877;27;20400;-74
2022/07/08 02:41:18;;;;;;;2.15;2.05;;;19.90;99.90;;;;;;5106513;27;20418;-72
2022/07/08 02:43:48;;;;;;;3.47;1.73;;;20.10;99.90;;;;;;5107100;28;20039;-73
2022/07/08 02:46:14;;;;;;;2.10;1.83;;;20.20;99.90;;;;;;5111886;28;20031;-71
2022/07/08 02:48:40;;;;;;;1.90;1.65;;;20.10;99.90;;;;;;5119973;28;20027;-73
2022/07/08 02:51:06;;;;;;;1.77;1.67;;;20.00;99.90;;;;;;5125763;28;20039;-73
2022/07/08 02:53:32;;;;;;;1.92;1.73;;;20.00;99.90;;;;;;5117650;28;20027;-72
2022/07/08 02:55:58;;;;;;;1.92;1.83;;;20.00;99.90;;;;;;5099048;28;20172;-72
2022/07/08 02:58:25;;;;;;;2.10;1.90;;;19.90;99.90;;;;;;5112587;28;20405;-72
2022/07/08 03:00:51;;;;;;;1.98;1.75;;;19.90;99.90;;;;;;5108564;28;20020;-71
2022/07/08 03:03:17;;;;;;;2.22;2.00;;;19.70;99.90;;;;;;5089930;28;20032;-72
2022/07/08 03:05:43;;;;;;;1.92;1.83;;;19.70;99.90;;;;;;5088317;28;20093;-72
2022/07/08 03:08:09;;;;;;;2.15;2.05;;;19.60;99.90;;;;;;5091274;28;20092;-71
2022/07/08 03:10:34;;;;;;;5.30;2.55;;;19.60;99.90;;;;;;5091519;28;20646;-73
2022/07/08 03:13:00;;;;;;;2.25;2.00;;;19.50;99.90;;;;;;5088282;28;20031;-71
2022/07/08 03:15:26;;;;;;;2.45;2.35;;;19.60;99.90;;;;;;5088861;28;20023;-73
2022/07/08 03:17:52;;;;;;;2.72;2.50;;;19.60;99.90;;;;;;5090618;28;20455;-70
2022/07/08 03:20:18;;;;;;;2.45;2.33;;;19.60;99.90;;;;;;5090040;28;20032;-72
2022/07/08 03:22:45;;;;;;;2.92;2.17;;;19.50;99.90;;;;;;5089378;28;20016;-72
2022/07/08 03:25:11;;;;;;;1.77;1.67;;;19.50;99.90;;;;;;5088386;28;20142;-71
2022/07/08 03:27:37;;;;;;;2.65;2.28;;;19.50;99.90;;;;;;5094373;28;20537;-71
2022/07/08 03:30:05;;;;;;;2.55;2.35;;;19.50;99.90;;;;;;5100671;28;20044;-70
2022/07/08 03:32:30;;;;;;;2.60;2.42;;;19.50;99.90;;;;;;5090618;28;20024;-71
2022/07/08 03:34:56;;;;;;;2.72;2.47;;;19.50;99.90;;;;;;5088549;28;20077;-72
2022/07/08 03:37:22;;;;;;;3.40;3.20;;;19.50;99.90;;;;;;5091585;28;20129;-73
2022/07/08 03:39:48;;;;;;;2.50;2.40;;;19.60;99.90;;;;;;5109222;28;20027;-72
2022/07/08 03:42:14;;;;;;;2.65;2.45;;;19.60;99.90;;;;;;5090579;28;20023;-70
2022/07/08 03:44:40;;;;;;;3.28;2.42;;;19.60;99.90;;;;;;5087442;28;20567;-73
2022/07/08 03:47:05;;;;;;;2.40;1.90;;;19.60;99.90;;;;;;5091105;28;20016;-72
2022/07/08 03:49:31;;;;;;;2.78;2.58;;;19.70;99.90;;;;;;5087140;28;20024;-73
2022/07/08 03:51:57;;;;;;;2.58;2.30;;;19.70;99.90;;;;;;5094250;28;20079;-73
2022/07/08 03:54:23;;;;;;;3.45;2.88;;;19.80;99.90;;;;;;5092225;28;20027;-72
2022/07/08 03:56:48;;;;;;;2.83;2.25;;;19.80;99.90;;;;;;5091897;28;20020;-73
2022/07/08 03:59:14;;;;;;;1.77;1.67;;;19.80;99.90;;;;;;5087061;28;20409;-72
2022/07/08 04:01:40;;;;;;;2.15;2.05;;;19.80;99.90;;;;;;5087763;28;20561;-72
2022/07/08 04:04:06;;;;;;;2.15;1.95;;;19.90;99.90;;;;;;5088047;28;20088;-73
2022/07/08 04:06:31;;;;;;;1.92;1.77;;;20.00;99.90;;;;;;5089105;28;20024;-73
2022/07/08 04:08:57;;;;;;;1.85;1.75;;;20.00;99.90;;;;;;5093267;28;20032;-73
2022/07/08 04:11:23;;;;;;;2.10;1.90;;;20.00;99.90;;;;;;5089646;28;20027;-71
2022/07/08 04:13:49;;;;;;;1.75;1.63;;;20.00;99.90;;;;;;5101480;28;20039;-73
2022/07/08 04:16:15;;;;;;;2.28;2.03;;;20.00;99.90;;;;;;5093792;28;20025;-72
2022/07/08 04:18:41;;;;;;;2.25;1.95;;;20.00;99.90;;;;;;5089145;28;20027;-74
2022/07/08 04:21:08;;;;;;;4.70;1.85;;;20.10;99.90;;;;;;5089592;28;20027;-73
2022/07/08 04:23:34;;;;;;;1.58;1.25;;;20.20;99.90;;;;;;5089037;28;20047;-72
2022/07/08 04:26:00;;;;;;;1.63;1.50;;;20.30;99.90;;;;;;5086885;28;20551;-71
2022/07/08 04:28:26;;;;;;;4.22;2.25;;;20.40;99.90;;;;;;5111282;28;20032;-72
2022/07/08 04:30:52;;;;;;;1.73;1.55;;;20.50;99.90;;;;;;5119931;28;20024;-72
2022/07/08 04:33:18;;;;;;;1.35;1.27;;;20.60;99.90;;;;;;5106179;28;20028;-71
2022/07/08 04:35:44;;;;;;;1.52;1.33;;;20.90;99.90;;;;;;5102383;28;20027;-71
2022/07/08 04:38:09;;;;;;;3.83;1.00;;;21.00;99.90;;;;;;5094796;28;20038;-72
2022/07/08 04:40:35;;;;;;;3.67;1.63;;;21.20;99.90;;;;;;5088960;28;20044;-73
2022/07/08 04:43:01;;;;;;;2.58;1.33;;;21.20;99.90;;;;;;5090572;28;20481;-71
2022/07/08 04:45:27;;;;;;;9.23;2.75;;;21.20;99.90;;;;;;5105678;28;20753;-72
2022/07/08 04:47:53;;;;;;;3.85;2.75;;;21.20;99.90;;;;;;5108039;28;20032;-72
2022/07/08 04:50:20;;;;;;;4.05;2.05;;;21.10;99.90;;;;;;5106169;28;20035;-73
2022/07/08 04:52:45;;;;;;;2.05;1.85;;;21.00;99.90;;;;;;5112591;28;20043;-71
2022/07/08 04:55:30;;;;;;;2.08;1.65;;;21.10;99.90;;;;;;5101708;28;20024;-72
2022/07/08 04:58:01;;;;;;;1.85;1.63;;;21.00;99.90;;;;;;5092021;28;20035;-72
2022/07/08 05:00:28;;;;;;;1.90;1.42;;;21.10;99.90;;;;;;5091736;28;20028;-74
2022/07/08 05:02:54;;;;;;;1.70;1.60;;;21.00;99.90;;;;;;5111265;28;20019;-73
2022/07/08 05:05:21;;;;;;;1.27;1.13;;;21.10;99.90;;;;;;5115661;28;20066;-72
2022/07/08 05:07:47;;;;;;;2.30;2.05;;;21.20;99.90;;;;;;5115974;28;20031;-72
2022/07/08 05:10:15;;;;;;;1.90;1.60;;;21.20;99.90;;;;;;5110478;28;20485;-72
2022/07/08 05:12:41;;;;;;;3.60;1.58;;;21.10;99.90;;;;;;5097928;28;20028;-71
2022/07/08 05:15:07;;;;;;;1.75;1.25;;;21.20;99.90;;;;;;5091282;28;20031;-67
2022/07/08 05:17:33;;;;;;;9.02;1.60;;;21.60;99.90;;;;;;5093219;27;20899;-69
2022/07/08 05:19:59;;;;;;;1.65;1.55;;;22.00;99.90;;;;;;5096086;28;20032;-69
2022/07/08 05:22:25;;;;;;;1.50;1.40;;;22.10;99.90;;;;;;5092790;28;20028;-69
2022/07/08 05:24:50;;;;;;;2.60;1.67;;;22.10;99.90;;;;;;5091951;28;20019;-68
2022/07/08 05:27:16;;;;;;;1.73;1.63;;;22.10;99.90;;;;;;5091416;28;20028;-68
2022/07/08 05:29:42;;;;;;;2.45;1.73;;;21.90;99.90;;;;;;5093551;28;20343;-71
2022/07/08 05:32:24;;;;;;;1.95;1.52;;;21.90;99.90;;;;;;5115787;27;20110;-72
2022/07/08 05:34:59;;;;;;;2.95;1.80;;;22.10;99.90;;;;;;5115919;28;20015;-69
2022/07/08 05:37:25;;;;;;;2.75;1.98;;;21.90;99.90;;;;;;5111426;28;20034;-70
2022/07/08 05:39:54;;;;;;;1.48;1.33;;;21.80;99.90;;;;;;5110415;28;20031;-71
2022/07/08 05:42:19;;;;;;;5.72;1.80;;;21.80;99.90;;;;;;5111171;28;20023;-69
2022/07/08 05:44:45;;;;;;;1.48;1.30;;;21.80;99.90;;;;;;5114689;28;20102;-71
2022/07/08 05:47:13;;;;;;;1.02;0.90;;;21.90;99.90;;;;;;5097561;28;20031;-69
2022/07/08 05:49:39;;;;;;;1.55;1.45;;;22.00;99.90;;;;;;5091576;28;20039;-70
2022/07/08 05:52:05;;;;;;;1.13;1.08;;;22.10;99.90;;;;;;5091468;28;20107;-67
2022/07/08 05:54:32;;;;;;;2.65;1.60;;;22.20;99.90;;;;;;5095040;28;20430;-69
2022/07/08 05:56:58;;;;;;;6.50;1.27;;;22.20;99.90;;;;;;5098831;28;20031;-69
2022/07/08 05:59:24;;;;;;;1.05;1.05;;;22.10;99.90;;;;;;5109336;28;20023;-69
2022/07/08 06:01:50;;;;;;;1.00;1.00;;;22.20;99.90;;;;;;5111085;28;20019;-69
2022/07/08 06:04:16;;;;;;;1.00;1.00;;;22.20;99.90;;;;;;5116803;28;20381;-71
2022/07/08 06:06:41;;;;;;;1.50;1.40;;;22.40;99.90;;;;;;5105238;28;20067;-72
2022/07/08 06:09:07;;;;;;;1.95;0.93;;;22.40;99.90;;;;;;5110072;28;20030;-72
2022/07/08 06:11:33;;;;;;;1.77;0.98;;;22.20;99.90;;;;;;5102588;28;20028;-71
2022/07/08 06:13:59;;;;;;;0.50;0.50;;;22.10;99.90;;;;;;5110694;28;20090;-71
2022/07/08 06:16:25;;;;;;;1.35;1.25;;;22.00;99.90;;;;;;5111021;28;20028;-69
2022/07/08 06:18:50;;;;;;;2.00;0.80;;;22.00;99.90;;;;;;5102010;28;20454;-69
2022/07/08 06:21:16;;;;;;;1.40;1.30;;;22.00;99.90;;;;;;5108476;28;20907;-71
2022/07/08 06:23:42;;;;;;;1.88;0.90;;;22.00;99.90;;;;;;5105983;28;20015;-69
2022/07/08 06:26:08;;;;;;;2.67;1.23;;;22.20;99.90;;;;;;5107001;28;20027;-69
2022/07/08 06:28:33;;;;;;;0.90;0.90;;;22.10;99.90;;;;;;5111351;28;20499;-69
2022/07/08 06:30:59;;;;;;;0.90;0.90;;;22.20;99.90;;;;;;5111799;28;20043;-69
2022/07/08 06:33:25;;;;;;;1.25;1.15;;;22.50;99.90;;;;;;5108877;28;20580;-71
2022/07/08 06:35:51;;;;;;;6.38;0.95;;;22.70;99.90;;;;;;5105741;28;20027;-73
2022/07/08 06:38:17;;;;;;;1.30;0.98;;;22.50;99.90;;;;;;5103099;28;20097;-71
2022/07/08 06:40:43;;;;;;;2.15;0.95;;;22.60;99.90;;;;;;5105414;28;20035;-71
2022/07/08 06:43:09;;;;;;;1.35;1.23;;;22.80;99.90;;;;;;5103156;28;20028;-69
2022/07/08 06:45:35;;;;;;;1.05;0.73;;;22.90;99.90;;;;;;5109741;28;20030;-70
2022/07/08 06:48:02;;;;;;;1.20;0.85;;;22.70;99.90;;;;;;5108647;28;20030;-70
2022/07/08 06:50:28;;;;;;;1.13;0.80;;;22.70;99.90;;;;;;5106795;28;20088;-71
2022/07/08 06:53:00;;;;;;;2.42;0.93;;;22.90;99.90;;;;;;5110814;28;20023;-71
2022/07/08 06:55:26;;;;;;;0.80;0.80;;;23.20;99.90;;;;;;5104177;28;20028;-72
2022/07/08 06:57:52;;;;;;;2.58;1.90;;;23.20;99.90;;;;;;5111118;28;20039;-68
2022/07/08 07:00:18;;;;;;;1.42;1.33;;;23.20;99.90;;;;;;5110171;28;20028;-70
2022/07/08 07:02:44;;;;;;;7.22;1.88;;;23.30;99.90;;;;;;5103010;28;20111;-68
2022/07/08 07:05:10;;;;;;;1.52;0.70;;;23.30;99.90;;;;;;5105105;28;20020;-68
2022/07/08 07:07:36;;;;;;;5.70;1.13;;;23.40;99.90;;;;;;5117047;28;20073;-68
2022/07/08 07:10:02;;;;;;;3.20;1.00;;;23.40;99.90;;;;;;5121494;28;20032;-69
2022/07/08 07:12:27;;;;;;;1.50;1.30;;;23.20;99.90;;;;;;5113727;28;20150;-69
2022/07/08 07:14:53;;;;;;;4.65;1.05;;;23.30;99.90;;;;;;5119127;28;20104;-70
2022/07/08 07:17:21;;;;;;;1.85;0.90;;;23.40;99.90;;;;;;5120821;28;20116;-69
2022/07/08 07:19:48;;;;;;;1.38;1.17;;;23.40;99.90;;;;;;5116874;28;20028;-68
2022/07/08 07:22:14;;;;;;;1.42;1.05;;;23.30;99.90;;;;;;5111722;28;20374;-68
2022/07/08 07:24:40;;;;;;;1.75;0.70;;;23.60;99.90;;;;;;5110446;28;20020;-70
2022/07/08 07:27:07;;;;;;;0.65;0.65;;;23.60;99.90;;;;;;5110450;28;20027;-69
2022/07/08 07:29:33;;;;;;;2.17;0.90;;;23.50;99.90;;;;;;5109846;28;20035;-68
2022/07/08 07:31:59;;;;;;;0.50;0.50;;;23.70;99.90;;;;;;5110250;28;20024;-68
2022/07/08 07:34:25;;;;;;;2.88;1.52;;;23.60;99.90;;;;;;5113024;28;20027;-68
2022/07/08 07:36:50;;;;;;;1.50;1.23;;;23.40;99.90;;;;;;5112893;28;20103;-70
2022/07/08 07:39:16;;;;;;;0.88;0.77;;;23.60;99.90;;;;;;5113206;28;20064;-68
2022/07/08 07:41:42;;;;;;;0.75;0.75;;;23.70;99.90;;;;;;5113841;28;20511;-71
2022/07/08 07:44:08;;;;;;;2.25;1.08;;;23.70;99.90;;;;;;5105100;28;20606;-70
2022/07/08 07:46:34;;;;;;;0.60;0.60;;;23.90;99.90;;;;;;5112522;28;20028;-69
2022/07/08 07:49:00;;;;;;;1.63;0.82;;;24.10;99.90;;;;;;5111215;28;20023;-67
2022/07/08 07:51:26;;;;;;;3.28;1.92;;;24.20;99.90;;;;;;5111699;28;20030;-69
2022/07/08 07:53:52;;;;;;;3.10;1.13;;;24.30;99.90;;;;;;5111151;28;20031;-70
2022/07/08 07:56:18;;;;;;;2.03;1.40;;;24.30;99.90;;;;;;5111052;28;20039;-71
2022/07/08 07:58:44;;;;;;;3.30;1.38;;;24.30;99.90;;;;;;5106600;28;20459;-68
2022/07/08 08:01:09;;;;;;;0.73;0.52;;;24.20;99.90;;;;;;5109582;28;20350;-69
2022/07/08 08:03:35;;;;;;;0.47;0.47;;;24.20;99.90;;;;;;5111261;28;20094;-70
2022/07/08 08:06:01;;;;;;;0.60;0.40;;;24.20;99.90;;;;;;5111219;28;20016;-70
2022/07/08 08:08:31;;;;;;;1.02;0.93;;;24.30;99.90;;;;;;5109919;28;20031;-70
2022/07/08 08:10:58;;;;;;;0.60;0.60;;;24.40;99.90;;;;;;5112259;28;20393;-70
2022/07/08 08:13:23;;;;;;;2.88;1.30;;;24.60;99.90;;;;;;5110041;28;20390;-70
2022/07/08 08:15:49;;;;;;;1.27;0.63;;;24.80;99.90;;;;;;5111924;28;20019;-70
2022/07/08 08:18:15;;;;;;;2.15;0.70;;;24.90;99.90;;;;;;5114383;28;20473;-70
2022/07/08 08:20:42;;;;;;;1.92;0.90;;;24.80;99.90;;;;;;5114991;28;20019;-71
2022/07/08 08:23:08;;;;;;;0.70;0.70;;;24.60;99.90;;;;;;5115103;28;20019;-69
2022/07/08 08:25:34;;;;;;;1.20;0.93;;;24.80;99.90;;;;;;5114753;28;20083;-69
2022/07/08 08:28:00;;;;;;;1.20;0.93;;;25.00;99.90;;;;;;5113275;28;20430;-71
2022/07/08 08:30:26;;;;;;;2.25;0.45;;;25.10;99.90;;;;;;5114473;28;20026;-69
2022/07/08 08:32:52;;;;;;;1.00;0.70;;;25.40;99.90;;;;;;5115523;27;20024;-69
2022/07/08 08:35:18;;;;;;;3.80;0.93;;;25.50;99.90;;;;;;5113257;28;20028;-69
2022/07/08 08:37:46;;;;;;;0.82;0.82;;;25.60;99.90;;;;;;5114559;28;20026;-72
2022/07/08 08:40:13;;;;;;;0.52;0.38;;;25.60;99.90;;;;;;5114416;28;20055;-69
2022/07/08 08:42:40;;;;;;;0.30;0.30;;;25.60;99.90;;;;;;5111283;28;20097;-69
2022/07/08 08:45:07;;;;;;;0.68;0.68;;;25.60;99.90;;;;;;5108941;28;20098;-68
2022/07/08 08:47:34;;;;;;;1.75;0.30;;;25.40;99.90;;;;;;5113983;28;20016;-69
2022/07/08 08:52:51;;;;;;;0.47;0.47;;;25.30;99.90;;;;;;5113886;28;20035;-69
2022/07/08 08:55:25;;;;;;;0.40;0.40;;;25.40;99.90;;;;;;5112642;28;20039;-69
2022/07/08 08:57:51;;;;;;;0.40;0.40;;;25.60;99.90;;;;;;5114022;28;20055;-69
2022/07/08 09:00:18;;;;;;;0.63;0.50;;;25.60;99.90;;;;;;5112089;28;20027;-68
2022/07/08 09:02:44;;;;;;;0.77;0.32;;;25.30;99.90;;;;;;5114219;28;20020;-72
2022/07/08 09:05:10;;;;;;;0.30;0.30;;;25.60;99.90;;;;;;5108618;27;20077;-70
2022/07/08 09:07:36;;;;;;;3.55;0.40;;;25.60;99.90;;;;;;5114441;28;20047;-68
2022/07/08 09:10:02;;;;;;;0.50;0.50;;;25.70;99.90;;;;;;5114147;28;20023;-68
2022/07/08 09:12:28;;;;;;;0.30;0.30;;;25.80;99.90;;;;;;5113735;28;20024;-69
2022/07/08 09:14:54;;;;;;;1.58;0.38;;;26.00;99.90;;;;;;5113488;28;20039;-68
2022/07/08 09:17:21;;;;;;;2.38;0.30;;;26.10;99.90;;;;;;5113650;28;20031;-68
2022/07/08 09:19:49;;;;;;;0.60;0.60;;;26.10;99.90;;;;;;5113473;28;20020;-71
2022/07/08 09:22:14;;;;;;;0.30;0.30;;;26.20;99.90;;;;;;5113418;28;20016;-67
2022/07/08 09:24:40;;;;;;;0.38;0.38;;;26.20;99.90;;;;;;5112165;28;20578;-68
2022/07/08 09:27:10;;;;;;;0.40;0.40;;;26.20;99.90;;;;;;5111920;28;20027;-69
2022/07/08 09:29:56;;;;;;;0.40;0.40;;;26.30;99.90;;;;;;5113092;28;20397;-69
2022/07/08 09:32:21;;;;;;;3.20;0.55;;;26.50;99.90;;;;;;5113341;28;20089;-69
2022/07/08 09:34:47;;;;;;;0.50;0.50;;;26.60;99.90;;;;;;5111283;27;20516;-70
2022/07/08 09:37:15;;;;;;;0.63;0.40;;;26.50;99.90;;;;;;5113464;28;20024;-69
2022/07/08 09:39:42;;;;;;;0.40;0.40;;;26.30;99.90;;;;;;5111468;28;20059;-69
2022/07/08 09:42:09;;;;;;;0.70;0.70;;;26.30;99.90;;;;;;5111339;28;20524;-74
2022/07/08 09:44:36;;;;;;;2.67;0.30;;;26.40;99.90;;;;;;5106816;28;20027;-69
2022/07/08 09:47:09;;;;;;;0.70;0.70;;;26.60;99.90;;;;;;5113411;28;20098;-71
2022/07/08 09:49:35;;;;;;;0.35;0.35;;;26.60;99.90;;;;;;5109720;28;20401;-68
2022/07/08 09:52:01;;;;;;;0.63;0.17;;;26.60;99.90;;;;;;5107778;28;20019;-72
2022/07/08 09:54:28;;;;;;;0.45;0.45;;;26.60;99.90;;;;;;5112983;28;20580;-69
2022/07/08 09:57:01;;;;;;;1.77;0.55;;;26.70;99.90;;;;;;5112904;28;20094;-69
2022/07/08 09:59:28;;;;;;;4.75;0.70;;;27.00;99.90;;;;;;5103457;27;20023;-71
2022/07/08 10:01:54;;;;;;;4.32;0.63;;;27.20;99.90;;;;;;5113387;28;20266;-69
2022/07/08 10:04:22;;;;;;;0.52;0.35;;;27.30;99.90;;;;;;5113086;28;20030;-69
2022/07/08 10:06:48;;;;;;;1.23;0.85;;;27.50;99.90;;;;;;5111472;28;20030;-71
2022/07/08 10:09:14;;;;;;;5.20;0.65;;;27.40;99.90;;;;;;5111005;28;20106;-69
2022/07/08 10:11:41;;;;;;;0.65;0.65;;;27.50;99.90;;;;;;5104673;28;20053;-69
2022/07/08 10:14:08;;;;;;;1.48;1.08;;;27.30;99.90;;;;;;5112346;28;20024;-69
2022/07/08 10:16:37;;;;;;;0.45;0.45;;;27.20;99.90;;;;;;5112662;28;20028;-68
2022/07/08 10:19:05;;;;;;;2.22;0.77;;;26.70;99.90;;;;;;5110704;28;20102;-70
2022/07/08 10:21:34;;;;;;;1.27;0.60;;;26.50;99.90;;;;;;5112820;28;20035;-68
2022/07/08 10:24:00;;;;;;;0.80;0.80;;;26.10;99.90;;;;;;5112181;28;20165;-69
2022/07/08 10:26:36;;;;;;;0.95;0.80;;;25.80;99.90;;;;;;5112277;28;20385;-70
2022/07/08 10:29:10;;;;;;;2.10;0.77;;;26.10;99.90;;;;;;5110407;28;20482;-69
2022/07/08 10:31:42;;;;;;;0.95;0.77;;;26.00;99.90;;;;;;5112937;28;20386;-70
2022/07/08 10:34:08;;;;;;;1.30;1.00;;;26.10;99.90;;;;;;5112901;27;20024;-71
2022/07/08 10:36:53;;;;;;;3.70;0.98;;;25.90;99.90;;;;;;5112141;28;20153;-70
2022/07/08 10:39:26;;;;;;;1.15;1.05;;;25.90;99.90;;;;;;5111596;28;20027;-73
2022/07/08 10:41:59;;;;;;;4.53;0.80;;;26.10;99.90;;;;;;5112994;28;20477;-69
2022/07/08 10:44:43;;;;;;;0.65;0.65;;;26.20;99.90;;;;;;5113792;28;20023;-70
2022/07/08 10:47:15;;;;;;;1.92;0.70;;;26.00;99.90;;;;;;5112741;28;20114;-69
2022/07/08 10:49:41;;;;;;;0.63;0.63;;;26.20;99.90;;;;;;5111485;28;20020;-67
2022/07/08 10:52:07;;;;;;;0.98;0.82;;;26.20;99.90;;;;;;5110513;28;20486;-69
2022/07/08 10:54:37;;;;;;;1.42;0.75;;;26.10;99.90;;;;;;5110651;28;20481;-68
2022/07/08 10:57:27;;;;;;;0.93;0.88;;;26.10;99.90;;;;;;5111924;28;20046;-68
2022/07/08 11:00:13;;;;;;;2.85;1.33;;;26.00;99.90;;;;;;5104796;28;20096;-68
2022/07/08 11:02:45;;;;;;;1.42;1.00;;;26.20;99.90;;;;;;5110397;28;20107;-70
2022/07/08 11:05:38;;;;;;;1.02;1.02;;;26.30;99.90;;;;;;5111764;28;20051;-70
2022/07/08 11:08:19;;;;;;;4.35;1.00;;;26.30;99.90;;;;;;5107294;27;20028;-69
2022/07/08 11:10:45;;;;;;;0.60;0.53;;;26.30;99.90;;;;;;5111362;28;20065;-69
2022/07/08 11:13:11;;;;;;;0.98;0.52;;;26.50;99.90;;;;;;5115069;27;20023;-70
2022/07/08 11:15:37;;;;;;;2.75;0.70;;;26.50;99.90;;;;;;5115470;28;20023;-71
2022/07/08 11:18:03;;;;;;;2.17;0.90;;;26.50;99.90;;;;;;5116806;28;20102;-72
2022/07/08 11:20:32;;;;;;;1.17;0.95;;;26.30;99.90;;;;;;5112176;28;20031;-69
2022/07/08 11:23:04;;;;;;;1.42;0.90;;;26.50;99.90;;;;;;5109946;28;20054;-70
2022/07/08 11:25:30;;;;;;;1.58;0.88;;;26.60;99.90;;;;;;5111474;28;20049;-70
2022/07/08 11:27:56;;;;;;;0.80;0.80;;;26.50;99.90;;;;;;5111461;28;20434;-71
2022/07/08 11:30:23;;;;;;;2.92;0.82;;;26.50;99.90;;;;;;5110958;28;20065;-70
2022/07/08 11:32:50;;;;;;;3.72;0.98;;;26.30;99.90;;;;;;5111155;28;20496;-69
2022/07/08 11:35:19;;;;;;;2.30;1.30;;;26.50;99.90;;;;;;5111249;28;20111;-70
2022/07/08 11:37:45;;;;;;;4.88;1.40;;;26.60;99.90;;;;;;5107332;28;20502;-71
2022/07/08 11:40:13;;;;;;;1.05;0.73;;;26.90;99.90;;;;;;5110673;28;20469;-70
2022/07/08 11:42:40;;;;;;;1.50;1.00;;;26.80;99.90;;;;;;5109598;28;20439;-72
2022/07/08 11:45:07;;;;;;;0.70;0.65;;;26.90;99.90;;;;;;5111089;28;20030;-71
2022/07/08 11:47:33;;;;;;;3.30;0.95;;;27.00;99.90;;;;;;5109416;28;20023;-70
2022/07/08 11:49:59;;;;;;;0.90;0.85;;;26.90;99.90;;;;;;5110693;28;20026;-71
2022/07/08 11:52:27;;;;;;;3.65;0.73;;;26.90;99.90;;;;;;5115024;28;20023;-71
2022/07/08 11:54:54;;;;;;;1.08;1.05;;;26.90;99.90;;;;;;5115057;28;20470;-72
2022/07/08 11:57:20;;;;;;;2.90;0.63;;;27.00;99.90;;;;;;5114100;28;20072;-71
2022/07/08 11:59:48;;;;;;;3.33;0.95;;;27.20;99.90;;;;;;5104191;28;20036;-71
2022/07/08 12:02:20;;;;;;;0.82;0.80;;;27.40;99.90;;;;;;5113879;28;20016;-71
2022/07/08 12:04:48;;;;;;;1.77;0.80;;;27.20;99.90;;;;;;5115824;28;20505;-70
2022/07/08 12:07:27;;;;;;;2.72;0.60;;;27.10;99.90;;;;;;5115267;28;20024;-72
2022/07/08 12:10:04;;;;;;;0.95;0.80;;;27.10;99.90;;;;;;5116301;28;20050;-70
2022/07/08 12:12:34;;;;;;;1.45;0.80;;;26.90;99.90;;;;;;5116815;28;20038;-71
2022/07/08 12:15:14;;;;;;;3.45;1.27;;;26.90;99.90;;;;;;5116779;28;20024;-69
2022/07/08 12:17:40;;;;;;;3.35;1.23;;;26.80;99.90;;;;;;5116908;28;20096;-69
2022/07/08 12:20:07;;;;;;;1.83;0.80;;;26.80;99.90;;;;;;5116594;28;20052;-70
2022/07/08 12:22:49;;;;;;;2.50;0.98;;;26.90;99.90;;;;;;5115056;28;20106;-71
2022/07/08 12:25:18;;;;;;;0.95;0.93;;;27.00;99.90;;;;;;5115334;28;20019;-70
2022/07/08 12:27:53;;;;;;;1.67;0.90;;;27.40;99.90;;;;;;5115734;28;20039;-70
2022/07/08 12:30:28;;;;;;;8.02;1.48;;;27.50;99.90;;;;;;5114082;28;20019;-71
2022/07/08 12:32:59;;;;;;;4.47;1.85;;;27.50;99.90;;;;;;5117821;28;20019;-70
2022/07/08 12:35:29;;;;;;;;;;;27.40;99.90;;;;;;5117950;28;20167;-71
2022/07/08 12:38:10;;;;;;;5.57;0.77;;;27.40;99.90;;;;;;5113944;28;19911;-71
2022/07/08 12:40:40;;;;;;;2.03;1.05;;;27.30;99.90;;;;;;5114919;28;20107;-71
2022/07/08 12:43:08;;;;;;;5.78;0.80;;;27.40;99.90;;;;;;5115477;27;20020;-71
2022/07/08 12:45:34;;;;;;;2.50;1.10;;;27.30;99.90;;;;;;5114071;28;20076;-71
2022/07/08 12:48:02;;;;;;;3.53;1.02;;;27.30;99.90;;;;;;5114821;28;20508;-71
2022/07/08 12:50:28;;;;;;;3.17;1.25;;;27.30;99.90;;;;;;5115608;28;20035;-70
2022/07/08 12:52:54;;;;;;;1.52;1.08;;;27.40;99.90;;;;;;5116160;28;20034;-72
2022/07/08 12:55:20;;;;;;;2.05;0.90;;;27.70;99.90;;;;;;5116279;28;20027;-71